Pagrindinis puslapis
METAR-TAF:

METAR-TAF

Oro uostai :

Kalis, Kolumbija

platuma: 03-33N, ilguma: 076-23W, Aukštis: 961 m

Dabartinis oras

Ataskaita buvo paskelbta 26 minutes, ne 03:00 UTC
Vėjas 7 kt iš Šiaurės/Šiaurės Rytų, svyruoja nuo Šiaurės ir Rytų/Šiaurės Rytų
Temperatūra 23°C
Drėgmė 83%
Slėgis 1012 hPa
Matomumas 10 km arba daugiau
Mažai debesys ne aukštis 3000 ft

METAR: SKCL 180300Z 03007KT 360V070 9999 FEW030 23/20 A2988 NOSIG

Laikas: 22:26 (03:26 UTC)

Prognozė

Ataskaita buvo paskelbta 4 valandos ir 56 minutes, ne 22:30 UTC
Prognozė galioja nuo 18 metu 00 UTC su 18 metu 24 UTC
Vėjas 10 kt iš Šiaurės Vakarų
Matomumas 10 km arba daugiau
Mažai debesys ne aukštis 2300 ft
Išsisklaidę debesys ne aukštis 12000 ft
Tapsmas
nuo 18 metu 02 UTC su 18 metu 04 UTC
Vėjas 4 kt iš Šiaurės Rytų
Tapsmas
nuo 18 metu 18 UTC su 18 metu 19 UTC
Vėjas 12 kt iš Šiaurės Vakarų

TAF: SKCL 172230Z 1800/1824 32010KT 9999 FEW023 SCT120 BECMG 1802/1804 04004KT BECMG 1818/1819 32012KT TX35/1819Z TN18/1811Z

Orai ataskaitas ir orų prognozės (METAR, TAF).

turimą stotys yra geltonos ir raudonos taškus žemėlapyje.

Perkelti pele per norėdami pamatyti stoties vardą.

Tada spustelėkite, norėdami matyti oro stebėjimo ir prognozės.

Norėdami pakeisti žemėlapį: spustelėkite ant žalios mygtukų su juodo kryžiaus žemyn,; žalią mygtuką su brūkšneliu, jei norite nutolinti; arba žalių rodyklių gretimoms žemėlapius.


METAR-TAF: